Time;durP1;ratioP1;P1;durP2;ratioP2;P2;SDS_P1;SDS_P2;PMS_P1;PMS_P2;Temp;Humidity;BMP_temperature;BMP_pressure;BME280_temperature;BME280_humidity;BME280_pressure;Samples;Min_cycle;Max_cycle;Signal;HPM_P1;HPM_P2
2023/10/17 00:01:47;;;;;;;;;;;8.30;99.90;;;;;;5118040;28;19923;-42
2023/10/17 00:06:48;;;;;;;;;;;8.30;99.90;;;;;;5118000;28;19923;-42
2023/10/17 00:09:24;;;;;;;;;;;8.30;99.90;;;;;;5117625;28;19924;-42
2023/10/17 00:14:19;;;;;;;;;;;8.30;99.90;;;;;;5117672;28;19924;-41
2023/10/17 00:16:45;;;;;;;;;;;8.30;99.90;;;;;;5117628;28;20282;-42
2023/10/17 00:19:11;;;;;;;;;;;8.30;99.90;;;;;;5117529;28;19928;-42
2023/10/17 00:21:39;;;;;;;;;;;8.30;99.90;;;;;;5117475;28;19928;-42
2023/10/17 00:24:08;;;;;;;;;;;8.30;99.90;;;;;;5117499;28;19969;-42
2023/10/17 00:26:35;;;;;;;;;;;8.30;99.90;;;;;;5116410;28;19923;-42
2023/10/17 00:29:04;;;;;;;;;;;8.30;99.90;;;;;;5117426;28;19923;-42
2023/10/17 00:31:30;;;;;;;;;;;8.30;99.90;;;;;;5117189;28;20375;-42
2023/10/17 00:33:57;;;;;;;;;;;8.30;99.90;;;;;;5117445;28;19923;-42
2023/10/17 00:36:23;;;;;;;;;;;8.20;99.90;;;;;;5117065;28;19924;-42
2023/10/17 00:38:49;;;;;;;;;;;8.20;99.90;;;;;;5117027;28;19923;-42
2023/10/17 00:41:34;;;;;;;;;;;8.30;99.90;;;;;;5117365;28;19924;-42
2023/10/17 00:44:00;;;;;;;;;;;8.30;99.90;;;;;;5117090;28;19930;-42
2023/10/17 00:46:25;;;;;;;;;;;8.30;99.90;;;;;;5117196;28;19924;-42
2023/10/17 00:48:51;;;;;;;;;;;8.40;99.90;;;;;;5117024;28;19923;-43
2023/10/17 00:51:21;;;;;;;;;;;8.40;99.90;;;;;;5116006;28;20010;-43
2023/10/17 00:53:46;;;;;;;;;;;8.40;99.90;;;;;;5117004;28;20366;-42
2023/10/17 00:56:13;;;;;;;;;;;8.40;99.90;;;;;;5116968;28;19924;-42
2023/10/17 00:58:45;;;;;;;;;;;8.40;99.90;;;;;;5116011;28;19932;-42
2023/10/17 01:01:19;;;;;;;;;;;8.30;99.90;;;;;;5116929;28;20030;-42
2023/10/17 01:03:45;;;;;;;;;;;8.30;99.90;;;;;;5116875;28;19924;-42
2023/10/17 01:06:35;;;;;;;;;;;8.30;99.90;;;;;;5116383;28;19927;-42
2023/10/17 01:09:08;;;;;;;;;;;8.30;99.90;;;;;;5116734;28;19963;-42
2023/10/17 01:11:38;;;;;;;;;;;8.30;99.90;;;;;;5116811;28;19924;-42
2023/10/17 01:14:04;;;;;;;;;;;8.30;99.90;;;;;;5116283;28;19924;-42
2023/10/17 01:16:33;;;;;;;;;;;8.30;99.90;;;;;;5116604;28;19923;-42
2023/10/17 01:19:04;;;;;;;;;;;8.30;99.90;;;;;;5116411;28;19924;-42
2023/10/17 01:21:30;;;;;;;;;;;8.30;99.90;;;;;;5115386;28;20354;-42
2023/10/17 01:23:56;;;;;;;;;;;8.30;99.90;;;;;;5116351;28;19931;-42
2023/10/17 01:26:23;;;;;;;;;;;8.20;99.90;;;;;;5116286;28;19931;-41
2023/10/17 01:28:49;;;;;;;;;;;8.20;99.90;;;;;;5115112;28;19928;-42
2023/10/17 01:31:16;;;;;;;;;;;8.10;99.90;;;;;;5115039;28;19931;-42
2023/10/17 01:33:45;;;;;;;;;;;8.10;99.90;;;;;;5116217;28;19924;-42
2023/10/17 01:36:10;;;;;;;;;;;8.10;99.90;;;;;;5115942;28;19930;-42
2023/10/17 01:38:36;;;;;;;;;;;8.00;99.90;;;;;;5116114;28;19923;-42
2023/10/17 01:41:02;;;;;;;;;;;8.00;99.90;;;;;;5115963;28;19923;-42
2023/10/17 01:43:40;;;;;;;;;;;8.00;99.90;;;;;;5115722;28;20287;-42
2023/10/17 01:46:15;;;;;;;;;;;8.10;99.90;;;;;;5116178;28;19924;-42
2023/10/17 01:48:47;;;;;;;;;;;8.10;99.90;;;;;;5115864;28;19930;-42
2023/10/17 01:51:13;;;;;;;;;;;8.10;99.90;;;;;;5115674;28;19969;-43
2023/10/17 01:53:39;;;;;;;;;;;8.20;99.90;;;;;;5115853;28;19977;-42
2023/10/17 01:56:14;;;;;;;;;;;8.10;99.90;;;;;;5115535;28;20344;-42
2023/10/17 01:58:48;;;;;;;;;;;8.10;99.90;;;;;;5115769;28;20024;-42
2023/10/17 02:01:16;;;;;;;;;;;8.10;99.90;;;;;;5115730;28;20295;-41
2023/10/17 02:03:42;;;;;;;;;;;8.10;99.90;;;;;;5115654;28;20022;-41
2023/10/17 02:06:14;;;;;;;;;;;8.10;99.90;;;;;;5115488;28;19967;-42
2023/10/17 02:08:43;;;;;;;;;;;8.00;99.90;;;;;;5114149;28;19923;-41
2023/10/17 02:11:26;;;;;;;;;;;8.00;99.90;;;;;;5115411;28;19927;-42
2023/10/17 02:13:58;;;;;;;;;;;7.90;99.90;;;;;;5114567;28;19924;-41
2023/10/17 02:16:33;;;;;;;;;;;7.90;99.90;;;;;;5114910;27;19930;-42
2023/10/17 02:18:59;;;;;;;;;;;7.80;99.90;;;;;;5115136;28;19927;-42
2023/10/17 02:21:27;;;;;;;;;;;7.90;99.90;;;;;;5115091;28;19931;-42
2023/10/17 02:23:53;;;;;;;;;;;7.90;99.90;;;;;;5115131;28;20329;-41
2023/10/17 02:26:22;;;;;;;;;;;7.90;99.90;;;;;;5115023;28;19932;-42
2023/10/17 02:28:53;;;;;;;;;;;7.80;99.90;;;;;;5114103;28;20009;-42
2023/10/17 02:31:29;;;;;;;;;;;7.80;99.90;;;;;;5114830;28;20409;-42
2023/10/17 02:33:55;;;;;;;;;;;7.80;99.90;;;;;;5114826;28;20267;-42
2023/10/17 02:36:20;;;;;;;;;;;7.80;99.90;;;;;;5115140;28;19950;-42
2023/10/17 02:38:46;;;;;;;;;;;7.70;99.90;;;;;;5114881;28;19923;-43
2023/10/17 02:41:13;;;;;;;;;;;7.70;99.90;;;;;;5115161;28;19931;-42
2023/10/17 02:43:40;;;;;;;;;;;7.70;99.90;;;;;;5114849;28;20386;-42
2023/10/17 02:46:06;;;;;;;;;;;7.70;99.90;;;;;;5114832;28;19923;-42
2023/10/17 02:48:38;;;;;;;;;;;7.80;99.90;;;;;;5114669;28;19931;-42
2023/10/17 02:51:11;;;;;;;;;;;7.80;99.90;;;;;;5115207;28;19924;-42
2023/10/17 02:53:38;;;;;;;;;;;7.80;99.90;;;;;;5114559;28;20279;-41
2023/10/17 02:56:18;;;;;;;;;;;7.80;99.90;;;;;;5114568;28;20457;-42
2023/10/17 02:58:50;;;;;;;;;;;7.70;99.90;;;;;;5114457;28;19924;-42
2023/10/17 03:01:17;;;;;;;;;;;7.70;99.90;;;;;;5114586;28;19928;-42
2023/10/17 03:03:43;;;;;;;;;;;7.70;99.90;;;;;;5114671;28;20019;-42
2023/10/17 03:06:08;;;;;;;;;;;7.80;99.90;;;;;;5114630;28;19931;-42
2023/10/17 03:08:36;;;;;;;;;;;7.70;99.90;;;;;;5130293;27;19962;-42
2023/10/17 03:11:02;;;;;;;;;;;7.70;99.90;;;;;;5114286;28;20417;-42
2023/10/17 03:13:40;;;;;;;;;;;7.70;99.90;;;;;;5114515;28;19924;-42
2023/10/17 03:16:24;;;;;;;;;;;7.70;99.90;;;;;;5114468;28;20248;-42
2023/10/17 03:18:58;;;;;;;;;;;7.70;99.90;;;;;;5113808;28;20276;-42
2023/10/17 03:21:35;;;;;;;;;;;7.70;99.90;;;;;;5114544;28;19979;-42
2023/10/17 03:24:01;;;;;;;;;;;7.60;99.90;;;;;;5119190;28;19924;-43
2023/10/17 03:26:38;;;;;;;;;;;7.60;99.90;;;;;;5118634;28;19924;-42
2023/10/17 03:29:11;;;;;;;;;;;7.60;99.90;;;;;;5118758;28;19930;-41
2023/10/17 03:31:38;;;;;;;;;;;7.60;99.90;;;;;;5118521;28;19977;-43
2023/10/17 03:34:05;;;;;;;;;;;7.60;99.90;;;;;;5118300;28;19958;-43
2023/10/17 03:36:49;;;;;;;;;;;7.60;99.90;;;;;;5117641;28;19985;-42
2023/10/17 03:39:20;;;;;;;;;;;7.50;99.90;;;;;;5117771;28;19931;-42
2023/10/17 03:41:46;;;;;;;;;;;7.40;99.90;;;;;;5118465;27;19930;-42
2023/10/17 03:44:15;;;;;;;;;;;7.40;99.90;;;;;;5118062;28;19923;-42
2023/10/17 03:46:42;;;;;;;;;;;7.50;99.90;;;;;;5117924;28;19923;-42
2023/10/17 03:49:07;;;;;;;;;;;7.50;99.90;;;;;;5118128;28;19971;-42
2023/10/17 03:51:33;;;;;;;;;;;7.50;99.90;;;;;;5118183;28;19971;-42
2023/10/17 03:54:06;;;;;;;;;;;7.50;99.90;;;;;;5117189;28;20282;-42
2023/10/17 03:56:40;;;;;;;;;;;7.50;99.90;;;;;;5118236;28;19963;-42
2023/10/17 04:01:50;;;;;;;;;;;7.50;99.90;;;;;;5117913;28;19931;-42
2023/10/17 04:04:32;;;;;;;;;;;7.50;99.90;;;;;;5134047;27;19924;-42
2023/10/17 04:06:59;;;;;;;;;;;7.60;99.90;;;;;;5116821;28;19927;-42
2023/10/17 04:09:28;;;;;;;;;;;7.60;99.90;;;;;;5116303;28;20293;-42
2023/10/17 04:11:58;;;;;;;;;;;7.60;99.90;;;;;;5117455;28;20287;-42
2023/10/17 04:14:30;;;;;;;;;;;7.60;99.90;;;;;;5117694;28;19924;-42
2023/10/17 04:16:56;;;;;;;;;;;7.60;99.90;;;;;;5117444;28;19923;-41
2023/10/17 04:19:23;;;;;;;;;;;7.60;99.90;;;;;;5117767;28;19931;-42
2023/10/17 04:22:01;;;;;;;;;;;7.60;99.90;;;;;;5117398;28;19928;-42
2023/10/17 04:24:27;;;;;;;;;;;7.60;99.90;;;;;;5117585;28;19924;-42
2023/10/17 04:27:06;;;;;;;;;;;7.60;99.90;;;;;;5116250;28;19924;-42
2023/10/17 04:29:32;;;;;;;;;;;7.60;99.90;;;;;;5117557;28;20018;-42
2023/10/17 04:32:01;;;;;;;;;;;7.60;99.90;;;;;;5117225;28;19934;-42
2023/10/17 04:34:27;;;;;;;;;;;7.50;99.90;;;;;;5116102;28;19931;-42
2023/10/17 04:36:53;;;;;;;;;;;7.50;99.90;;;;;;5117007;28;19928;-42
2023/10/17 04:39:25;;;;;;;;;;;7.50;99.90;;;;;;5117232;27;20026;-42
2023/10/17 04:44:17;;;;;;;;;;;7.60;99.90;;;;;;5116161;28;20382;-42
2023/10/17 04:47:25;;;;;;;;;;;7.60;99.90;;;;;;5115779;28;19924;-41
2023/10/17 04:49:36;;;;;;;;;;;7.60;99.90;;;;;;5114867;28;19924;-43
2023/10/17 04:55:11;;;;;;;;;;;7.50;99.90;;;;;;5093147;28;19923;-42
2023/10/17 05:03:32;;;;;;;;;;;7.60;99.90;;;;;;5116663;28;19930;-42
2023/10/17 05:07:06;;;;;;;;;;;7.60;99.90;;;;;;5116965;28;20014;-41
2023/10/17 06:17:40;;;;;;;;;;;7.90;99.90;;;;;;5091415;28;20258;-41
2023/10/17 06:20:11;;;;;;;;;;;7.90;99.90;;;;;;5115346;28;19934;-41
2023/10/17 06:28:26;;;;;;;;;;;7.90;99.90;;;;;;5115076;28;19986;-41
2023/10/17 06:33:36;;;;;;;;;;;7.90;99.90;;;;;;5114770;28;19930;-41
2023/10/17 06:36:24;;;;;;;;;;;7.90;99.90;;;;;;5114992;27;19924;-41
2023/10/17 06:38:51;;;;;;;;;;;7.90;99.90;;;;;;5114877;28;19924;-41
2023/10/17 06:41:27;;;;;;;;;;;7.90;99.90;;;;;;5114896;28;19924;-42
2023/10/17 06:43:58;;;;;;;;;;;7.90;99.90;;;;;;5114601;28;19976;-42
2023/10/17 06:46:30;;;;;;;;;;;8.00;99.90;;;;;;5114977;28;19923;-41
2023/10/17 06:49:03;;;;;;;;;;;8.00;99.90;;;;;;5114745;28;20370;-41
2023/10/17 06:51:49;;;;;;;;;;;8.00;99.90;;;;;;5114979;28;20290;-41
2023/10/17 06:54:24;;;;;;;;;;;8.10;99.90;;;;;;5114856;28;19924;-41
2023/10/17 06:56:50;;;;;;;;;;;8.10;99.90;;;;;;5114051;28;19967;-41
2023/10/17 06:59:24;;;;;;;;;;;8.10;99.90;;;;;;5114733;28;19931;-41
2023/10/17 07:02:03;;;;;;;;;;;8.10;99.90;;;;;;5114836;28;20293;-41
2023/10/17 07:04:29;;;;;;;;;;;8.10;99.90;;;;;;5114694;28;20021;-42
2023/10/17 07:06:55;;;;;;;;;;;8.10;99.90;;;;;;5113507;28;20018;-41
2023/10/17 07:09:24;;;;;;;;;;;8.20;99.90;;;;;;5114475;28;20080;-41
2023/10/17 07:11:52;;;;;;;;;;;8.20;99.90;;;;;;5114484;28;19931;-41
2023/10/17 07:14:25;;;;;;;;;;;8.20;99.90;;;;;;5113838;28;20107;-41
2023/10/17 07:16:57;;;;;;;;;;;8.20;99.90;;;;;;5113041;28;20473;-42
2023/10/17 07:24:34;;;;;;;;;;;8.30;99.90;;;;;;5114638;28;19923;-41
2023/10/17 07:27:01;;;;;;;;;;;8.30;99.90;;;;;;5114602;28;19923;-41
2023/10/17 07:29:27;;;;;;;;;;;8.40;99.90;;;;;;5114214;28;20350;-41
2023/10/17 07:31:54;;;;;;;;;;;8.40;99.90;;;;;;5114103;28;19924;-41
2023/10/17 07:34:21;;;;;;;;;;;8.50;99.90;;;;;;5114340;28;19924;-42
2023/10/17 07:36:54;;;;;;;;;;;8.50;99.90;;;;;;5114302;28;19931;-41
2023/10/17 07:39:23;;;;;;;;;;;8.50;99.90;;;;;;5114348;28;19932;-41
2023/10/17 07:41:55;;;;;;;;;;;8.60;99.90;;;;;;5113204;28;19989;-43
2023/10/17 07:44:29;;;;;;;;;;;8.60;99.90;;;;;;5114097;28;20014;-42
2023/10/17 07:49:37;;;;;;;;;;;8.60;99.90;;;;;;5114213;28;19977;-41
2023/10/17 07:52:12;;;;;;;;;;;8.70;99.90;;;;;;5114525;28;20006;-41
2023/10/17 07:54:55;;;;;;;;;;;8.70;99.90;;;;;;5114270;28;19924;-41
2023/10/17 07:57:36;;;;;;;;;;;8.70;99.90;;;;;;5114497;28;20014;-41
2023/10/17 08:00:02;;;;;;;;;;;8.70;99.90;;;;;;5114516;28;20000;-41
2023/10/17 08:02:30;;;;;;;;;;;8.70;99.90;;;;;;5113892;28;19930;-41
2023/10/17 08:05:00;;;;;;;;;;;8.70;99.90;;;;;;5113206;28;19931;-41
2023/10/17 08:07:29;;;;;;;;;;;8.70;99.90;;;;;;5114715;28;19924;-41
2023/10/17 08:09:57;;;;;;;;;;;8.70;99.90;;;;;;5117809;28;19930;-41
2023/10/17 08:12:24;;;;;;;;;;;8.70;99.90;;;;;;5117822;28;19970;-41
2023/10/17 08:14:59;;;;;;;;;;;8.80;99.90;;;;;;5116706;28;19924;-41
2023/10/17 08:17:27;;;;;;;;;;;8.80;99.90;;;;;;5117334;28;19924;-42
2023/10/17 08:22:55;;;;;;;;;;;8.80;99.90;;;;;;5117958;28;20018;-41
2023/10/17 08:25:30;;;;;;;;;;;8.80;99.90;;;;;;5117639;28;19966;-42
2023/10/17 08:27:56;;;;;;;;;;;8.90;99.90;;;;;;5117351;28;19977;-42
2023/10/17 08:30:34;;;;;;;;;;;8.90;99.90;;;;;;5117168;28;19930;-42
2023/10/17 08:35:40;;;;;;;;;;;9.00;99.90;;;;;;5117210;28;19935;-42
2023/10/17 08:38:08;;;;;;;;;;;9.10;99.90;;;;;;5117419;28;19947;-41
2023/10/17 08:43:20;;;;;;;;;;;9.20;99.90;;;;;;5116952;28;20443;-41
2023/10/17 08:45:47;;;;;;;;;;;9.20;99.90;;;;;;5117162;28;19928;-41
2023/10/17 08:48:13;;;;;;;;;;;9.30;99.90;;;;;;5117107;28;19928;-41
2023/10/17 08:50:43;;;;;;;;;;;9.30;99.90;;;;;;5116841;28;20370;-42
2023/10/17 08:53:23;;;;;;;;;;;9.30;99.90;;;;;;5117066;28;19928;-42
2023/10/17 08:55:50;;;;;;;;;;;9.40;99.90;;;;;;5115852;28;19981;-41
2023/10/17 08:58:17;;;;;;;;;;;9.40;99.90;;;;;;5116893;28;20335;-42
2023/10/17 09:03:23;;;;;;;;;;;9.50;99.90;;;;;;5116850;28;19934;-42
2023/10/17 09:05:58;;;;;;;;;;;9.60;99.90;;;;;;5116492;28;20302;-42
2023/10/17 09:08:47;;;;;;;;;;;9.60;99.90;;;;;;5117225;28;19927;-41
2023/10/17 09:11:25;;;;;;;;;;;9.60;99.90;;;;;;5116635;28;19950;-41
2023/10/17 09:16:16;;;;;;;;;;;9.70;99.90;;;;;;5116075;28;19930;-42
2023/10/17 09:18:47;;;;;;;;;;;9.70;99.90;;;;;;5115904;28;19924;-42
2023/10/17 09:21:14;;;;;;;;;;;9.80;99.90;;;;;;5115507;28;19973;-42
2023/10/17 09:23:41;;;;;;;;;;;9.80;99.90;;;;;;5116346;28;19923;-41
2023/10/17 09:26:09;;;;;;;;;;;9.80;99.90;;;;;;5116402;28;19924;-41
2023/10/17 09:28:41;;;;;;;;;;;9.80;99.90;;;;;;5116139;28;19923;-42
2023/10/17 09:31:08;;;;;;;;;;;9.90;99.90;;;;;;5116259;28;20022;-41
2023/10/17 09:33:35;;;;;;;;;;;9.90;99.90;;;;;;5116218;28;20027;-42
2023/10/17 09:36:04;;;;;;;;;;;9.90;99.90;;;;;;5115530;28;19924;-41
2023/10/17 09:38:33;;;;;;;;;;;10.00;99.90;;;;;;5116087;28;19931;-41
2023/10/17 09:40:59;;;;;;;;;;;10.00;99.90;;;;;;5115976;28;20018;-41
2023/10/17 09:43:25;;;;;;;;;;;10.00;99.90;;;;;;5114934;28;19953;-41
2023/10/17 09:45:52;;;;;;;;;;;10.10;99.90;;;;;;5115925;28;19928;-42
2023/10/17 09:48:21;;;;;;;;;;;10.10;99.90;;;;;;5115492;28;20394;-41
2023/10/17 09:50:48;;;;;;;;;;;10.20;99.90;;;;;;5115811;28;19924;-41
2023/10/17 09:53:14;;;;;;;;;;;10.20;99.90;;;;;;5116039;27;19924;-41
2023/10/17 09:55:44;;;;;;;;;;;10.20;99.90;;;;;;5115682;28;20006;-41
2023/10/17 09:58:10;;;;;;;;;;;10.20;99.90;;;;;;5115565;28;20093;-41
2023/10/17 10:00:36;;;;;;;;;;;10.20;99.90;;;;;;5115604;28;19973;-41
2023/10/17 10:03:03;;;;;;;;;;;10.40;99.90;;;;;;5115787;28;19924;-41
2023/10/17 10:05:28;;;;;;;;;;;10.40;99.90;;;;;;5115515;28;19928;-41
2023/10/17 10:07:54;;;;;;;;;;;10.40;99.90;;;;;;5115482;28;19923;-41
2023/10/17 10:10:38;;;;;;;;;;;10.50;99.90;;;;;;5115284;28;19985;-42
2023/10/17 10:13:07;;;;;;;;;;;10.50;99.90;;;;;;5115445;28;19974;-41
2023/10/17 10:15:52;;;;;;;;;;;10.60;99.90;;;;;;5115249;28;19924;-41
2023/10/17 10:18:40;;;;;;;;;;;10.60;99.90;;;;;;5115189;28;19931;-41
2023/10/17 10:21:07;;;;;;;;;;;10.70;99.90;;;;;;5115626;28;20402;-42
2023/10/17 10:23:36;;;;;;;;;;;10.70;99.90;;;;;;5115165;28;19959;-42
2023/10/17 10:26:10;;;;;;;;;;;10.70;99.90;;;;;;5114008;28;19974;-42
2023/10/17 10:28:39;;;;;;;;;;;10.80;99.90;;;;;;5114901;28;20374;-41
2023/10/17 10:31:20;;;;;;;;;;;10.80;99.90;;;;;;5114056;28;19924;-42
2023/10/17 10:33:47;;;;;;;;;;;10.90;99.90;;;;;;5115467;28;19924;-41
2023/10/17 10:36:13;;;;;;;;;;;10.90;99.90;;;;;;5114882;28;19976;-41
2023/10/17 10:38:39;;;;;;;;;;;10.90;99.90;;;;;;5115028;27;19928;-42
2023/10/17 10:41:08;;;;;;;;;;;11.00;99.90;;;;;;5113678;28;20371;-41
2023/10/17 10:43:33;;;;;;;;;;;11.00;99.90;;;;;;5114993;28;19923;-43
2023/10/17 10:46:00;;;;;;;;;;;11.10;99.90;;;;;;5114608;28;20347;-42
2023/10/17 10:48:26;;;;;;;;;;;11.10;99.90;;;;;;5114788;28;20024;-41
2023/10/17 10:50:55;;;;;;;;;;;11.20;99.90;;;;;;5114771;28;19977;-41
2023/10/17 10:53:21;;;;;;;;;;;11.20;99.90;;;;;;5114761;28;19979;-41
2023/10/17 10:55:50;;;;;;;;;;;11.30;99.90;;;;;;5114897;28;20067;-41
2023/10/17 10:58:15;;;;;;;;;;;11.40;99.90;;;;;;5113633;28;19930;-41
2023/10/17 11:00:41;;;;;;;;;;;11.40;99.90;;;;;;5114461;28;19928;-41
2023/10/17 11:03:07;;;;;;;;;;;11.50;99.90;;;;;;5115097;28;19990;-41
2023/10/17 11:05:49;;;;;;;;;;;11.50;99.90;;;;;;5114480;28;19928;-42
2023/10/17 11:08:16;;;;;;;;;;;11.60;99.90;;;;;;5114800;28;20272;-41
2023/10/17 11:10:41;;;;;;;;;;;11.60;99.90;;;;;;5114449;27;20014;-41
2023/10/17 11:13:08;;;;;;;;;;;11.70;99.90;;;;;;5114303;28;19978;-42
2023/10/17 11:15:34;;;;;;;;;;;11.70;99.90;;;;;;5114325;28;20340;-42
2023/10/17 11:18:01;;;;;;;;;;;11.80;99.90;;;;;;5114434;28;19962;-41
2023/10/17 11:20:27;;;;;;;;;;;11.80;99.90;;;;;;5114445;28;20355;-41
2023/10/17 11:22:53;;;;;;;;;;;11.90;99.90;;;;;;5114631;28;19930;-41
2023/10/17 11:25:27;;;;;;;;;;;11.90;99.90;;;;;;5114326;28;20384;-41
2023/10/17 11:27:56;;;;;;;;;;;12.00;99.90;;;;;;5114392;28;19924;-41
2023/10/17 11:30:34;;;;;;;;;;;12.00;99.90;;;;;;5114284;28;19975;-41
2023/10/17 11:33:01;;;;;;;;;;;12.10;99.90;;;;;;5113412;28;20378;-41
2023/10/17 11:35:29;;;;;;;;;;;12.10;99.90;;;;;;5114316;28;19924;-41
2023/10/17 11:37:56;;;;;;;;;;;12.10;99.90;;;;;;5114190;28;19930;-42
2023/10/17 11:40:46;;;;;;;;;;;12.10;99.90;;;;;;5114342;28;19924;-41
2023/10/17 11:43:15;;;;;;;;;;;12.10;99.90;;;;;;5116861;28;19928;-41
2023/10/17 11:45:41;;;;;;;;;;;12.10;99.90;;;;;;5118431;28;19930;-41
2023/10/17 11:48:26;;;;;;;;;;;12.10;99.90;;;;;;5118139;28;20336;-41
2023/10/17 11:51:05;;;;;;;;;;;12.10;99.90;;;;;;5118255;28;19974;-41
2023/10/17 11:53:31;;;;;;;;;;;12.10;99.90;;;;;;5118214;28;19985;-41
2023/10/17 11:55:58;;;;;;;;;;;12.20;99.90;;;;;;5117924;28;20379;-41
2023/10/17 11:58:29;;;;;;;;;;;12.20;99.90;;;;;;5118076;28;19986;-41
2023/10/17 12:00:55;;;;;;;;;;;12.10;99.90;;;;;;5117972;28;19970;-41
2023/10/17 12:03:21;;;;;;;;;;;12.10;99.90;;;;;;5118218;28;19923;-41
2023/10/17 12:05:47;;;;;;;;;;;12.20;99.90;;;;;;5118013;28;20406;-41
2023/10/17 12:08:22;;;;;;;;;;;12.10;99.90;;;;;;5117857;28;19969;-42
2023/10/17 12:10:50;;;;;;;;;;;12.10;99.90;;;;;;5118001;28;19924;-42
2023/10/17 12:13:17;;;;;;;;;;;12.20;99.90;;;;;;5117814;28;19989;-41
2023/10/17 12:15:44;;;;;;;;;;;12.20;99.90;;;;;;5116263;28;20393;-41
2023/10/17 12:18:10;;;;;;;;;;;12.20;99.90;;;;;;5117669;28;20414;-41
2023/10/17 12:20:40;;;;;;;;;;;12.20;99.90;;;;;;5117594;28;19924;-41
2023/10/17 12:23:08;;;;;;;;;;;12.20;99.90;;;;;;5117511;28;19923;-42
2023/10/17 12:25:34;;;;;;;;;;;12.20;99.90;;;;;;5117457;27;19931;-42
2023/10/17 12:28:02;;;;;;;;;;;12.20;99.90;;;;;;5117291;28;19924;-42
2023/10/17 12:30:27;;;;;;;;;;;12.20;99.90;;;;;;5116357;28;20296;-42
2023/10/17 12:32:55;;;;;;;;;;;12.20;99.90;;;;;;5117682;28;19949;-41
2023/10/17 12:35:21;;;;;;;;;;;12.20;99.90;;;;;;5116506;28;19969;-41
2023/10/17 12:37:50;;;;;;;;;;;12.20;99.90;;;;;;5117271;28;19932;-41
2023/10/17 12:40:19;;;;;;;;;;;12.20;99.90;;;;;;5117161;28;19930;-41
2023/10/17 12:42:46;;;;;;;;;;;12.20;99.90;;;;;;5117002;28;20359;-42
2023/10/17 12:45:14;;;;;;;;;;;12.20;99.90;;;;;;5117224;28;19923;-42
2023/10/17 12:47:40;;;;;;;;;;;12.20;99.90;;;;;;5117223;28;20344;-41
2023/10/17 12:50:07;;;;;;;;;;;12.10;99.90;;;;;;5117016;28;19930;-42
2023/10/17 12:52:33;;;;;;;;;;;12.20;99.90;;;;;;5116910;27;20336;-41
2023/10/17 12:54:59;;;;;;;;;;;12.10;99.90;;;;;;5115993;28;19928;-41
2023/10/17 12:57:25;;;;;;;;;;;12.10;99.90;;;;;;5116693;28;19976;-42
2023/10/17 12:59:50;;;;;;;;;;;12.10;99.90;;;;;;5115970;28;20010;-41
2023/10/17 13:02:16;;;;;;;;;;;12.10;99.90;;;;;;5116861;28;20282;-41
2023/10/17 13:04:42;;;;;;;;;;;12.10;99.90;;;;;;5116757;27;20389;-41
2023/10/17 13:07:08;;;;;;;;;;;12.10;99.90;;;;;;5116700;28;19930;-41
2023/10/17 13:09:33;;;;;;;;;;;12.10;99.90;;;;;;5116584;27;19987;-41
2023/10/17 13:12:00;;;;;;;;;;;12.10;99.90;;;;;;5117143;28;19977;-42
2023/10/17 13:14:25;;;;;;;;;;;12.10;99.90;;;;;;5116663;28;19928;-41
2023/10/17 13:16:51;;;;;;;;;;;12.00;99.90;;;;;;5115311;28;19930;-43
2023/10/17 13:19:18;;;;;;;;;;;12.10;99.90;;;;;;5116604;28;19923;-41
2023/10/17 13:21:47;;;;;;;;;;;12.00;99.90;;;;;;5116477;28;19924;-41
2023/10/17 13:24:14;;;;;;;;;;;12.00;99.90;;;;;;5115009;28;19970;-41
2023/10/17 13:26:40;;;;;;;;;;;12.00;99.90;;;;;;5116219;28;20290;-41
2023/10/17 13:29:05;;;;;;;;;;;12.00;99.90;;;;;;5116220;28;19924;-41
2023/10/17 13:31:31;;;;;;;;;;;12.00;99.90;;;;;;5116235;28;19931;-42
2023/10/17 13:33:56;;;;;;;;;;;12.00;99.90;;;;;;5116224;28;19924;-42
2023/10/17 13:36:24;;;;;;;;;;;12.00;99.90;;;;;;5116063;28;19992;-42
2023/10/17 13:38:49;;;;;;;;;;;12.00;99.90;;;;;;5115900;28;19924;-41
2023/10/17 13:41:15;;;;;;;;;;;12.00;99.90;;;;;;5115852;28;19923;-41
2023/10/17 13:43:42;;;;;;;;;;;11.90;99.90;;;;;;5115773;28;20010;-43
2023/10/17 13:46:14;;;;;;;;;;;11.90;99.90;;;;;;5115972;28;20386;-42
2023/10/17 13:48:48;;;;;;;;;;;11.90;99.90;;;;;;5114944;28;19931;-42
2023/10/17 13:51:15;;;;;;;;;;;11.90;99.90;;;;;;5114816;28;19927;-41
2023/10/17 13:53:43;;;;;;;;;;;11.90;99.90;;;;;;5115667;28;19930;-42
2023/10/17 13:56:27;;;;;;;;;;;11.90;99.90;;;;;;5116044;28;19977;-41
2023/10/17 13:58:53;;;;;;;;;;;11.90;99.90;;;;;;5115900;28;19928;-42
2023/10/17 14:01:28;;;;;;;;;;;11.90;99.90;;;;;;5115595;28;19928;-41
2023/10/17 14:03:55;;;;;;;;;;;11.90;99.90;;;;;;5115677;28;19984;-41
2023/10/17 14:06:21;;;;;;;;;;;11.90;99.90;;;;;;5115183;28;19924;-42
2023/10/17 14:08:46;;;;;;;;;;;11.90;99.90;;;;;;5114450;28;19924;-41
2023/10/17 14:11:17;;;;;;;;;;;11.90;99.90;;;;;;5115446;28;20381;-41
2023/10/17 14:13:46;;;;;;;;;;;11.90;99.90;;;;;;5115565;28;20010;-41
2023/10/17 14:16:12;;;;;;;;;;;11.90;99.90;;;;;;5115289;28;20018;-41
2023/10/17 14:18:43;;;;;;;;;;;11.90;99.90;;;;;;5115230;28;19974;-42
2023/10/17 14:21:34;;;;;;;;;;;11.90;99.90;;;;;;5115918;28;19924;-42
2023/10/17 14:24:07;;;;;;;;;;;11.90;99.90;;;;;;5115292;28;19978;-41
2023/10/17 14:26:33;;;;;;;;;;;11.90;99.90;;;;;;5115060;28;19930;-41
2023/10/17 14:29:07;;;;;;;;;;;11.80;99.90;;;;;;5115088;28;20026;-41
2023/10/17 14:31:32;;;;;;;;;;;11.80;99.90;;;;;;5115436;28;19927;-41
2023/10/17 14:33:59;;;;;;;;;;;11.80;99.90;;;;;;5115157;28;20014;-42
2023/10/17 14:36:26;;;;;;;;;;;11.80;99.90;;;;;;5114931;28;19923;-42
2023/10/17 14:38:53;;;;;;;;;;;11.80;99.90;;;;;;5115021;28;19924;-42
2023/10/17 14:41:18;;;;;;;;;;;11.80;99.90;;;;;;5114984;28;19927;-41
2023/10/17 14:43:46;;;;;;;;;;;11.80;99.90;;;;;;5114956;28;20009;-41
2023/10/17 14:46:16;;;;;;;;;;;11.70;99.90;;;;;;5114988;28;19928;-41
2023/10/17 14:48:42;;;;;;;;;;;11.70;99.90;;;;;;5115206;27;20036;-41
2023/10/17 14:51:08;;;;;;;;;;;11.70;99.90;;;;;;5114879;28;20395;-42
2023/10/17 14:53:34;;;;;;;;;;;11.70;99.90;;;;;;5114812;28;19947;-41
2023/10/17 14:56:04;;;;;;;;;;;11.70;99.90;;;;;;5114844;28;20371;-41
2023/10/17 14:58:31;;;;;;;;;;;11.70;99.90;;;;;;5114467;28;19932;-45
2023/10/17 15:00:57;;;;;;;;;;;11.60;99.90;;;;;;5114734;28;19923;-42
2023/10/17 15:03:22;;;;;;;;;;;11.60;99.90;;;;;;5114709;28;19977;-42
2023/10/17 15:05:48;;;;;;;;;;;11.60;99.90;;;;;;5113552;28;19931;-41
2023/10/17 15:08:14;;;;;;;;;;;11.60;99.90;;;;;;5114525;28;20014;-41
2023/10/17 15:10:39;;;;;;;;;;;11.50;99.90;;;;;;5114608;28;20341;-41
2023/10/17 15:13:08;;;;;;;;;;;11.50;99.90;;;;;;5114346;28;19924;-41
2023/10/17 15:15:34;;;;;;;;;;;11.50;99.90;;;;;;5114467;28;19931;-41
2023/10/17 15:18:00;;;;;;;;;;;11.50;99.90;;;;;;5117875;28;19923;-41
2023/10/17 15:20:25;;;;;;;;;;;11.40;99.90;;;;;;5121309;27;19977;-41
2023/10/17 15:22:51;;;;;;;;;;;11.40;99.90;;;;;;5121285;28;19923;-41
2023/10/17 15:25:19;;;;;;;;;;;11.40;99.90;;;;;;5121142;27;20359;-41
2023/10/17 15:27:45;;;;;;;;;;;11.40;99.90;;;;;;5121437;27;19928;-41
2023/10/17 15:30:14;;;;;;;;;;;11.40;99.90;;;;;;5121186;27;19983;-41
2023/10/17 15:32:40;;;;;;;;;;;11.40;99.90;;;;;;5121096;27;20382;-41
2023/10/17 15:35:15;;;;;;;;;;;11.30;99.90;;;;;;5121260;27;19924;-41
2023/10/17 15:37:48;;;;;;;;;;;11.30;99.90;;;;;;5121036;27;20294;-41
2023/10/17 15:40:19;;;;;;;;;;;11.30;99.90;;;;;;5120962;27;19931;-41
2023/10/17 15:42:46;;;;;;;;;;;11.20;99.90;;;;;;5120323;28;19981;-41
2023/10/17 15:45:14;;;;;;;;;;;11.20;99.90;;;;;;5121040;27;19924;-41
2023/10/17 15:47:43;;;;;;;;;;;11.20;99.90;;;;;;5121185;27;19976;-41
2023/10/17 15:50:18;;;;;;;;;;;11.10;99.90;;;;;;5120861;27;19935;-41
2023/10/17 15:52:51;;;;;;;;;;;11.10;99.90;;;;;;5120932;27;19924;-41
2023/10/17 15:55:16;;;;;;;;;;;11.00;99.90;;;;;;5121079;27;19923;-41
2023/10/17 15:57:45;;;;;;;;;;;11.00;99.90;;;;;;5121022;27;19931;-41
2023/10/17 16:00:15;;;;;;;;;;;10.90;99.90;;;;;;5120993;27;20500;-41
2023/10/17 16:02:44;;;;;;;;;;;10.90;99.90;;;;;;5120881;27;20431;-41
2023/10/17 16:05:10;;;;;;;;;;;10.80;99.90;;;;;;5120352;27;19924;-41
2023/10/17 16:07:40;;;;;;;;;;;10.80;99.90;;;;;;5120097;28;19930;-41
2023/10/17 16:10:07;;;;;;;;;;;10.70;99.90;;;;;;5120850;27;20005;-41
2023/10/17 16:12:32;;;;;;;;;;;10.60;99.90;;;;;;5120837;27;20374;-42
2023/10/17 16:14:58;;;;;;;;;;;10.50;99.90;;;;;;5120825;28;19935;-41
2023/10/17 16:17:24;;;;;;;;;;;10.50;99.90;;;;;;5120537;27;19924;-42
2023/10/17 16:19:51;;;;;;;;;;;10.50;99.90;;;;;;5120498;27;20442;-41
2023/10/17 16:22:16;;;;;;;;;;;10.40;99.90;;;;;;5120925;27;19928;-41
2023/10/17 16:24:42;;;;;;;;;;;10.30;99.90;;;;;;5120761;28;19950;-41
2023/10/17 16:27:08;;;;;;;;;;;10.30;99.90;;;;;;5120825;27;19923;-41
2023/10/17 16:29:34;;;;;;;;;;;10.20;99.90;;;;;;5118343;27;19976;-41
2023/10/17 16:32:02;;;;;;;;;;;10.10;99.90;;;;;;5117503;28;19927;-41
2023/10/17 16:34:28;;;;;;;;;;;10.10;99.90;;;;;;5117159;28;19924;-41